sensor_id;sensor_type;location;lat;lon;timestamp;P1;durP1;ratioP1;P2;durP2;ratioP2
72720;SDS011;60835;50.974;10.322;2022-12-10T00:00:42;33.85;;;18.63;;
72720;SDS011;60835;50.974;10.322;2022-12-10T00:03:08;33.47;;;18.15;;
72720;SDS011;60835;50.974;10.322;2022-12-10T00:05:36;32.92;;;16.80;;
72720;SDS011;60835;50.974;10.322;2022-12-10T00:08:03;30.67;;;17.00;;
72720;SDS011;60835;50.974;10.322;2022-12-10T00:10:29;31.13;;;16.77;;
72720;SDS011;60835;50.974;10.322;2022-12-10T00:12:56;34.15;;;17.08;;
72720;SDS011;60835;50.974;10.322;2022-12-10T00:15:22;34.05;;;17.80;;
72720;SDS011;60835;50.974;10.322;2022-12-10T00:17:49;34.40;;;16.83;;
72720;SDS011;60835;50.974;10.322;2022-12-10T00:20:17;30.75;;;16.05;;
72720;SDS011;60835;50.974;10.322;2022-12-10T00:22:43;31.48;;;16.48;;
72720;SDS011;60835;50.974;10.322;2022-12-10T00:25:10;35.80;;;18.33;;
72720;SDS011;60835;50.974;10.322;2022-12-10T00:27:36;32.97;;;17.90;;
72720;SDS011;60835;50.974;10.322;2022-12-10T00:30:03;36.75;;;17.15;;
72720;SDS011;60835;50.974;10.322;2022-12-10T00:32:30;32.13;;;16.83;;
72720;SDS011;60835;50.974;10.322;2022-12-10T00:34:57;36.15;;;18.23;;
72720;SDS011;60835;50.974;10.322;2022-12-10T00:37:23;33.80;;;17.20;;
72720;SDS011;60835;50.974;10.322;2022-12-10T00:39:50;34.45;;;18.30;;
72720;SDS011;60835;50.974;10.322;2022-12-10T00:42:16;32.55;;;17.15;;
72720;SDS011;60835;50.974;10.322;2022-12-10T00:44:42;37.17;;;17.80;;
72720;SDS011;60835;50.974;10.322;2022-12-10T00:47:09;29.05;;;16.27;;
72720;SDS011;60835;50.974;10.322;2022-12-10T00:49:35;35.42;;;17.98;;
72720;SDS011;60835;50.974;10.322;2022-12-10T00:52:02;37.42;;;18.60;;
72720;SDS011;60835;50.974;10.322;2022-12-10T00:54:28;29.70;;;15.82;;
72720;SDS011;60835;50.974;10.322;2022-12-10T00:56:55;37.28;;;17.50;;
72720;SDS011;60835;50.974;10.322;2022-12-10T00:59:21;33.58;;;16.83;;
72720;SDS011;60835;50.974;10.322;2022-12-10T01:01:48;34.30;;;18.42;;
72720;SDS011;60835;50.974;10.322;2022-12-10T01:04:15;35.72;;;18.00;;
72720;SDS011;60835;50.974;10.322;2022-12-10T01:06:48;35.75;;;18.33;;
72720;SDS011;60835;50.974;10.322;2022-12-10T01:09:20;34.78;;;17.40;;
72720;SDS011;60835;50.974;10.322;2022-12-10T01:11:48;32.28;;;16.95;;
72720;SDS011;60835;50.974;10.322;2022-12-10T01:14:18;36.10;;;17.45;;
72720;SDS011;60835;50.974;10.322;2022-12-10T01:16:46;38.75;;;18.38;;
72720;SDS011;60835;50.974;10.322;2022-12-10T01:19:13;34.30;;;16.83;;
72720;SDS011;60835;50.974;10.322;2022-12-10T01:21:39;35.22;;;17.02;;
72720;SDS011;60835;50.974;10.322;2022-12-10T01:24:06;31.15;;;16.15;;
72720;SDS011;60835;50.974;10.322;2022-12-10T01:26:36;33.90;;;16.48;;
72720;SDS011;60835;50.974;10.322;2022-12-10T01:29:02;34.78;;;17.00;;
72720;SDS011;60835;50.974;10.322;2022-12-10T01:31:34;32.50;;;16.60;;
72720;SDS011;60835;50.974;10.322;2022-12-10T01:34:02;34.15;;;16.48;;
72720;SDS011;60835;50.974;10.322;2022-12-10T01:36:31;32.70;;;16.15;;
72720;SDS011;60835;50.974;10.322;2022-12-10T01:38:59;34.20;;;16.70;;
72720;SDS011;60835;50.974;10.322;2022-12-10T01:41:28;34.08;;;17.77;;
72720;SDS011;60835;50.974;10.322;2022-12-10T01:43:59;34.58;;;17.08;;
72720;SDS011;60835;50.974;10.322;2022-12-10T01:46:32;37.50;;;17.63;;
72720;SDS011;60835;50.974;10.322;2022-12-10T01:49:00;31.92;;;16.90;;
72720;SDS011;60835;50.974;10.322;2022-12-10T01:51:29;34.10;;;16.55;;
72720;SDS011;60835;50.974;10.322;2022-12-10T01:53:59;31.58;;;15.90;;
72720;SDS011;60835;50.974;10.322;2022-12-10T01:56:29;28.25;;;14.00;;
72720;SDS011;60835;50.974;10.322;2022-12-10T01:59:00;33.58;;;15.88;;
72720;SDS011;60835;50.974;10.322;2022-12-10T02:01:45;29.23;;;14.38;;
72720;SDS011;60835;50.974;10.322;2022-12-10T02:04:22;28.45;;;14.50;;
72720;SDS011;60835;50.974;10.322;2022-12-10T02:10:02;29.73;;;14.95;;
72720;SDS011;60835;50.974;10.322;2022-12-10T02:12:54;29.10;;;15.25;;
72720;SDS011;60835;50.974;10.322;2022-12-10T02:15:29;29.25;;;15.60;;
72720;SDS011;60835;50.974;10.322;2022-12-10T02:18:21;29.33;;;14.15;;
72720;SDS011;60835;50.974;10.322;2022-12-10T02:20:51;30.10;;;14.65;;
72720;SDS011;60835;50.974;10.322;2022-12-10T02:23:33;28.60;;;14.33;;
72720;SDS011;60835;50.974;10.322;2022-12-10T02:28:51;31.00;;;14.82;;
72720;SDS011;60835;50.974;10.322;2022-12-10T02:31:31;30.38;;;14.45;;
72720;SDS011;60835;50.974;10.322;2022-12-10T02:34:00;30.92;;;14.38;;
72720;SDS011;60835;50.974;10.322;2022-12-10T02:36:31;27.60;;;14.43;;
72720;SDS011;60835;50.974;10.322;2022-12-10T02:39:02;30.58;;;15.65;;
72720;SDS011;60835;50.974;10.322;2022-12-10T02:41:35;31.25;;;15.45;;
72720;SDS011;60835;50.974;10.322;2022-12-10T02:44:09;30.35;;;14.32;;
72720;SDS011;60835;50.974;10.322;2022-12-10T02:46:39;31.20;;;15.73;;
72720;SDS011;60835;50.974;10.322;2022-12-10T02:49:09;31.40;;;15.30;;
72720;SDS011;60835;50.974;10.322;2022-12-10T02:51:39;32.63;;;15.20;;
72720;SDS011;60835;50.974;10.322;2022-12-10T02:57:11;30.98;;;15.00;;
72720;SDS011;60835;50.974;10.322;2022-12-10T03:02:48;31.63;;;15.45;;
72720;SDS011;60835;50.974;10.322;2022-12-10T03:08:03;30.95;;;14.43;;
72720;SDS011;60835;50.974;10.322;2022-12-10T03:10:39;31.55;;;14.70;;
72720;SDS011;60835;50.974;10.322;2022-12-10T03:13:15;31.25;;;14.27;;
72720;SDS011;60835;50.974;10.322;2022-12-10T03:15:44;33.03;;;16.60;;
72720;SDS011;60835;50.974;10.322;2022-12-10T03:18:13;31.27;;;15.10;;
72720;SDS011;60835;50.974;10.322;2022-12-10T03:20:47;28.33;;;14.70;;
72720;SDS011;60835;50.974;10.322;2022-12-10T03:23:15;31.63;;;15.55;;
72720;SDS011;60835;50.974;10.322;2022-12-10T03:25:44;32.45;;;15.43;;
72720;SDS011;60835;50.974;10.322;2022-12-10T03:28:12;32.70;;;15.25;;
72720;SDS011;60835;50.974;10.322;2022-12-10T03:30:39;29.02;;;14.77;;
72720;SDS011;60835;50.974;10.322;2022-12-10T03:33:09;31.02;;;14.25;;
72720;SDS011;60835;50.974;10.322;2022-12-10T03:35:35;30.88;;;14.93;;
72720;SDS011;60835;50.974;10.322;2022-12-10T03:38:04;33.03;;;16.25;;
72720;SDS011;60835;50.974;10.322;2022-12-10T03:40:30;30.50;;;15.30;;
72720;SDS011;60835;50.974;10.322;2022-12-10T03:42:57;31.15;;;14.73;;
72720;SDS011;60835;50.974;10.322;2022-12-10T03:45:24;30.48;;;13.90;;
72720;SDS011;60835;50.974;10.322;2022-12-10T03:47:50;31.20;;;15.20;;
72720;SDS011;60835;50.974;10.322;2022-12-10T03:50:17;32.20;;;15.02;;
72720;SDS011;60835;50.974;10.322;2022-12-10T03:52:43;32.42;;;14.77;;
72720;SDS011;60835;50.974;10.322;2022-12-10T03:55:10;28.60;;;13.15;;
72720;SDS011;60835;50.974;10.322;2022-12-10T03:57:36;30.80;;;14.80;;
72720;SDS011;60835;50.974;10.322;2022-12-10T04:00:05;27.50;;;13.02;;
72720;SDS011;60835;50.974;10.322;2022-12-10T04:02:33;30.15;;;13.63;;
72720;SDS011;60835;50.974;10.322;2022-12-10T04:05:00;25.83;;;12.48;;
72720;SDS011;60835;50.974;10.322;2022-12-10T04:07:26;27.48;;;13.10;;
72720;SDS011;60835;50.974;10.322;2022-12-10T04:09:53;31.80;;;13.65;;
72720;SDS011;60835;50.974;10.322;2022-12-10T04:12:19;28.52;;;14.07;;
72720;SDS011;60835;50.974;10.322;2022-12-10T04:14:46;24.30;;;12.10;;
72720;SDS011;60835;50.974;10.322;2022-12-10T04:17:32;30.17;;;14.18;;
72720;SDS011;60835;50.974;10.322;2022-12-10T04:19:59;28.60;;;13.52;;
72720;SDS011;60835;50.974;10.322;2022-12-10T04:22:26;30.00;;;14.25;;
72720;SDS011;60835;50.974;10.322;2022-12-10T04:25:11;30.05;;;14.07;;
72720;SDS011;60835;50.974;10.322;2022-12-10T04:27:57;28.35;;;14.02;;
72720;SDS011;60835;50.974;10.322;2022-12-10T04:30:24;28.50;;;13.38;;
72720;SDS011;60835;50.974;10.322;2022-12-10T04:32:51;27.38;;;13.35;;
72720;SDS011;60835;50.974;10.322;2022-12-10T04:35:17;29.63;;;14.27;;
72720;SDS011;60835;50.974;10.322;2022-12-10T04:37:44;28.83;;;13.35;;
72720;SDS011;60835;50.974;10.322;2022-12-10T04:40:10;27.58;;;13.20;;
72720;SDS011;60835;50.974;10.322;2022-12-10T04:42:37;24.17;;;11.50;;
72720;SDS011;60835;50.974;10.322;2022-12-10T04:45:04;27.55;;;13.35;;
72720;SDS011;60835;50.974;10.322;2022-12-10T04:47:31;27.38;;;13.82;;
72720;SDS011;60835;50.974;10.322;2022-12-10T04:49:57;28.92;;;13.13;;
72720;SDS011;60835;50.974;10.322;2022-12-10T04:52:24;28.10;;;13.13;;
72720;SDS011;60835;50.974;10.322;2022-12-10T04:54:51;27.70;;;12.57;;
72720;SDS011;60835;50.974;10.322;2022-12-10T04:57:19;28.40;;;14.10;;
72720;SDS011;60835;50.974;10.322;2022-12-10T04:59:46;28.35;;;13.48;;
72720;SDS011;60835;50.974;10.322;2022-12-10T05:02:13;29.73;;;14.02;;
72720;SDS011;60835;50.974;10.322;2022-12-10T05:04:40;28.00;;;13.68;;
72720;SDS011;60835;50.974;10.322;2022-12-10T05:07:10;27.77;;;13.40;;
72720;SDS011;60835;50.974;10.322;2022-12-10T05:09:37;29.65;;;13.77;;
72720;SDS011;60835;50.974;10.322;2022-12-10T05:12:04;29.90;;;13.82;;
72720;SDS011;60835;50.974;10.322;2022-12-10T05:14:31;32.45;;;14.85;;
72720;SDS011;60835;50.974;10.322;2022-12-10T05:16:58;30.15;;;15.02;;
72720;SDS011;60835;50.974;10.322;2022-12-10T05:19:24;31.55;;;13.73;;
72720;SDS011;60835;50.974;10.322;2022-12-10T05:21:53;26.67;;;13.30;;
72720;SDS011;60835;50.974;10.322;2022-12-10T05:24:38;25.77;;;11.10;;
72720;SDS011;60835;50.974;10.322;2022-12-10T05:27:05;28.23;;;12.70;;
72720;SDS011;60835;50.974;10.322;2022-12-10T05:29:31;27.58;;;13.02;;
72720;SDS011;60835;50.974;10.322;2022-12-10T05:31:58;28.63;;;13.52;;
72720;SDS011;60835;50.974;10.322;2022-12-10T05:34:25;26.67;;;12.73;;
72720;SDS011;60835;50.974;10.322;2022-12-10T05:36:53;28.25;;;12.88;;
72720;SDS011;60835;50.974;10.322;2022-12-10T05:39:19;28.17;;;13.85;;
72720;SDS011;60835;50.974;10.322;2022-12-10T05:41:46;30.27;;;13.82;;
72720;SDS011;60835;50.974;10.322;2022-12-10T05:44:12;30.38;;;14.63;;
72720;SDS011;60835;50.974;10.322;2022-12-10T05:46:39;30.42;;;14.23;;
72720;SDS011;60835;50.974;10.322;2022-12-10T05:49:06;30.77;;;14.25;;
72720;SDS011;60835;50.974;10.322;2022-12-10T05:51:34;32.55;;;15.70;;
72720;SDS011;60835;50.974;10.322;2022-12-10T05:54:02;32.58;;;14.82;;
72720;SDS011;60835;50.974;10.322;2022-12-10T05:56:30;30.65;;;14.00;;
72720;SDS011;60835;50.974;10.322;2022-12-10T05:58:58;32.90;;;14.55;;
72720;SDS011;60835;50.974;10.322;2022-12-10T06:01:27;32.35;;;14.73;;
72720;SDS011;60835;50.974;10.322;2022-12-10T06:03:57;31.00;;;14.23;;
72720;SDS011;60835;50.974;10.322;2022-12-10T06:06:26;28.30;;;13.25;;
72720;SDS011;60835;50.974;10.322;2022-12-10T06:08:55;30.50;;;14.48;;
72720;SDS011;60835;50.974;10.322;2022-12-10T06:11:22;32.70;;;15.32;;
72720;SDS011;60835;50.974;10.322;2022-12-10T06:13:49;34.75;;;15.57;;
72720;SDS011;60835;50.974;10.322;2022-12-10T06:16:21;41.42;;;17.50;;
72720;SDS011;60835;50.974;10.322;2022-12-10T06:18:49;33.83;;;15.23;;
72720;SDS011;60835;50.974;10.322;2022-12-10T06:21:16;36.95;;;16.52;;
72720;SDS011;60835;50.974;10.322;2022-12-10T06:23:43;36.42;;;15.25;;
72720;SDS011;60835;50.974;10.322;2022-12-10T06:26:12;36.42;;;15.85;;
72720;SDS011;60835;50.974;10.322;2022-12-10T06:28:41;34.47;;;14.88;;
72720;SDS011;60835;50.974;10.322;2022-12-10T06:31:10;35.58;;;15.48;;
72720;SDS011;60835;50.974;10.322;2022-12-10T06:33:37;39.70;;;16.30;;
72720;SDS011;60835;50.974;10.322;2022-12-10T06:36:07;37.80;;;15.48;;
72720;SDS011;60835;50.974;10.322;2022-12-10T06:38:36;28.85;;;13.25;;
72720;SDS011;60835;50.974;10.322;2022-12-10T06:41:06;32.72;;;14.18;;
72720;SDS011;60835;50.974;10.322;2022-12-10T06:43:35;28.52;;;13.55;;
72720;SDS011;60835;50.974;10.322;2022-12-10T06:46:05;28.85;;;13.07;;
72720;SDS011;60835;50.974;10.322;2022-12-10T06:48:41;27.17;;;12.32;;
72720;SDS011;60835;50.974;10.322;2022-12-10T06:51:08;25.02;;;12.18;;
72720;SDS011;60835;50.974;10.322;2022-12-10T06:53:36;25.35;;;11.75;;
72720;SDS011;60835;50.974;10.322;2022-12-10T06:56:04;28.00;;;11.95;;
72720;SDS011;60835;50.974;10.322;2022-12-10T06:58:32;26.75;;;12.30;;
72720;SDS011;60835;50.974;10.322;2022-12-10T07:01:07;24.15;;;11.75;;
72720;SDS011;60835;50.974;10.322;2022-12-10T07:03:36;28.38;;;13.23;;
72720;SDS011;60835;50.974;10.322;2022-12-10T07:06:03;29.98;;;13.23;;
72720;SDS011;60835;50.974;10.322;2022-12-10T07:08:32;29.88;;;13.23;;
72720;SDS011;60835;50.974;10.322;2022-12-10T07:11:02;28.67;;;13.18;;
72720;SDS011;60835;50.974;10.322;2022-12-10T07:13:30;29.70;;;13.82;;
72720;SDS011;60835;50.974;10.322;2022-12-10T07:15:56;26.85;;;12.00;;
72720;SDS011;60835;50.974;10.322;2022-12-10T07:18:23;27.55;;;12.13;;
72720;SDS011;60835;50.974;10.322;2022-12-10T07:20:50;25.98;;;11.65;;
72720;SDS011;60835;50.974;10.322;2022-12-10T07:23:16;23.13;;;11.20;;
72720;SDS011;60835;50.974;10.322;2022-12-10T07:25:44;22.48;;;10.73;;
72720;SDS011;60835;50.974;10.322;2022-12-10T07:28:11;25.17;;;10.98;;
72720;SDS011;60835;50.974;10.322;2022-12-10T07:30:38;22.08;;;10.82;;
72720;SDS011;60835;50.974;10.322;2022-12-10T07:33:04;23.88;;;11.38;;
72720;SDS011;60835;50.974;10.322;2022-12-10T07:35:31;24.13;;;11.63;;
72720;SDS011;60835;50.974;10.322;2022-12-10T07:37:57;25.48;;;11.48;;
72720;SDS011;60835;50.974;10.322;2022-12-10T07:40:24;24.90;;;12.38;;
72720;SDS011;60835;50.974;10.322;2022-12-10T07:42:50;25.67;;;11.50;;
72720;SDS011;60835;50.974;10.322;2022-12-10T07:45:17;22.10;;;10.82;;
72720;SDS011;60835;50.974;10.322;2022-12-10T07:47:43;25.38;;;12.30;;
72720;SDS011;60835;50.974;10.322;2022-12-10T07:50:10;24.80;;;12.02;;
72720;SDS011;60835;50.974;10.322;2022-12-10T07:52:37;24.48;;;11.48;;
72720;SDS011;60835;50.974;10.322;2022-12-10T07:55:04;27.80;;;12.32;;
72720;SDS011;60835;50.974;10.322;2022-12-10T07:57:31;25.00;;;12.13;;
72720;SDS011;60835;50.974;10.322;2022-12-10T07:59:57;27.48;;;12.85;;
72720;SDS011;60835;50.974;10.322;2022-12-10T08:02:24;25.27;;;12.10;;
72720;SDS011;60835;50.974;10.322;2022-12-10T08:04:51;22.40;;;11.13;;
72720;SDS011;60835;50.974;10.322;2022-12-10T08:07:17;21.88;;;10.65;;
72720;SDS011;60835;50.974;10.322;2022-12-10T08:09:44;26.50;;;12.55;;
72720;SDS011;60835;50.974;10.322;2022-12-10T08:12:10;27.15;;;12.48;;
72720;SDS011;60835;50.974;10.322;2022-12-10T08:14:37;28.27;;;12.82;;
72720;SDS011;60835;50.974;10.322;2022-12-10T08:17:03;27.80;;;12.85;;
72720;SDS011;60835;50.974;10.322;2022-12-10T08:19:30;28.77;;;13.23;;
72720;SDS011;60835;50.974;10.322;2022-12-10T08:21:57;24.98;;;11.95;;
72720;SDS011;60835;50.974;10.322;2022-12-10T08:24:24;26.00;;;12.85;;
72720;SDS011;60835;50.974;10.322;2022-12-10T08:26:50;23.60;;;11.80;;
72720;SDS011;60835;50.974;10.322;2022-12-10T08:29:17;23.75;;;11.02;;
72720;SDS011;60835;50.974;10.322;2022-12-10T08:31:43;23.33;;;11.10;;
72720;SDS011;60835;50.974;10.322;2022-12-10T08:34:13;23.25;;;11.48;;
72720;SDS011;60835;50.974;10.322;2022-12-10T08:36:41;22.58;;;11.75;;
72720;SDS011;60835;50.974;10.322;2022-12-10T08:39:08;26.23;;;10.98;;
72720;SDS011;60835;50.974;10.322;2022-12-10T08:41:36;22.90;;;10.82;;
72720;SDS011;60835;50.974;10.322;2022-12-10T08:44:03;19.90;;;10.48;;
72720;SDS011;60835;50.974;10.322;2022-12-10T08:46:29;22.42;;;11.05;;
72720;SDS011;60835;50.974;10.322;2022-12-10T08:48:56;22.35;;;10.52;;
72720;SDS011;60835;50.974;10.322;2022-12-10T08:51:23;21.42;;;10.15;;
72720;SDS011;60835;50.974;10.322;2022-12-10T08:53:49;21.83;;;10.77;;
72720;SDS011;60835;50.974;10.322;2022-12-10T08:56:16;21.33;;;10.48;;
72720;SDS011;60835;50.974;10.322;2022-12-10T08:58:43;21.00;;;10.82;;
72720;SDS011;60835;50.974;10.322;2022-12-10T09:01:10;26.60;;;11.23;;
72720;SDS011;60835;50.974;10.322;2022-12-10T09:03:39;24.25;;;12.02;;
72720;SDS011;60835;50.974;10.322;2022-12-10T09:06:07;23.25;;;12.00;;
72720;SDS011;60835;50.974;10.322;2022-12-10T09:08:35;25.45;;;12.02;;
72720;SDS011;60835;50.974;10.322;2022-12-10T09:11:13;23.27;;;10.73;;
72720;SDS011;60835;50.974;10.322;2022-12-10T09:13:44;21.17;;;10.13;;
72720;SDS011;60835;50.974;10.322;2022-12-10T09:16:11;22.17;;;10.93;;
72720;SDS011;60835;50.974;10.322;2022-12-10T09:18:37;20.15;;;10.10;;
72720;SDS011;60835;50.974;10.322;2022-12-10T09:21:05;24.08;;;11.40;;
72720;SDS011;60835;50.974;10.322;2022-12-10T09:23:32;19.50;;;9.70;;
72720;SDS011;60835;50.974;10.322;2022-12-10T09:25:59;22.70;;;11.25;;
72720;SDS011;60835;50.974;10.322;2022-12-10T09:28:25;21.70;;;10.75;;
72720;SDS011;60835;50.974;10.322;2022-12-10T09:30:58;20.08;;;10.55;;
72720;SDS011;60835;50.974;10.322;2022-12-10T09:33:27;19.33;;;10.15;;
72720;SDS011;60835;50.974;10.322;2022-12-10T09:35:54;20.40;;;10.05;;
72720;SDS011;60835;50.974;10.322;2022-12-10T09:38:20;19.70;;;9.95;;
72720;SDS011;60835;50.974;10.322;2022-12-10T09:41:00;20.95;;;10.18;;
72720;SDS011;60835;50.974;10.322;2022-12-10T09:46:25;25.52;;;11.35;;
72720;SDS011;60835;50.974;10.322;2022-12-10T09:52:05;21.17;;;10.75;;
72720;SDS011;60835;50.974;10.322;2022-12-10T09:54:38;19.73;;;9.63;;
72720;SDS011;60835;50.974;10.322;2022-12-10T09:57:52;21.33;;;10.63;;
72720;SDS011;60835;50.974;10.322;2022-12-10T10:02:53;24.48;;;12.05;;
72720;SDS011;60835;50.974;10.322;2022-12-10T10:05:27;20.27;;;10.05;;
72720;SDS011;60835;50.974;10.322;2022-12-10T10:08:21;21.33;;;10.73;;
72720;SDS011;60835;50.974;10.322;2022-12-10T10:10:45;21.65;;;10.88;;
72720;SDS011;60835;50.974;10.322;2022-12-10T10:15:50;20.83;;;10.10;;
72720;SDS011;60835;50.974;10.322;2022-12-10T10:18:25;21.15;;;10.55;;
72720;SDS011;60835;50.974;10.322;2022-12-10T10:20:54;20.58;;;10.27;;
72720;SDS011;60835;50.974;10.322;2022-12-10T10:23:22;17.85;;;8.98;;
72720;SDS011;60835;50.974;10.322;2022-12-10T10:25:48;20.27;;;9.40;;
72720;SDS011;60835;50.974;10.322;2022-12-10T10:28:19;22.45;;;10.23;;
72720;SDS011;60835;50.974;10.322;2022-12-10T10:30:51;19.52;;;9.77;;
72720;SDS011;60835;50.974;10.322;2022-12-10T10:33:19;19.60;;;10.13;;
72720;SDS011;60835;50.974;10.322;2022-12-10T10:38:18;23.67;;;12.23;;
72720;SDS011;60835;50.974;10.322;2022-12-10T10:40:50;19.27;;;10.13;;
72720;SDS011;60835;50.974;10.322;2022-12-10T10:48:25;18.20;;;9.13;;
72720;SDS011;60835;50.974;10.322;2022-12-10T10:51:07;19.77;;;10.18;;
72720;SDS011;60835;50.974;10.322;2022-12-10T10:56:27;22.85;;;10.77;;
72720;SDS011;60835;50.974;10.322;2022-12-10T10:59:00;15.27;;;8.00;;
72720;SDS011;60835;50.974;10.322;2022-12-10T11:01:49;18.88;;;8.43;;
72720;SDS011;60835;50.974;10.322;2022-12-10T11:04:21;16.83;;;8.65;;
72720;SDS011;60835;50.974;10.322;2022-12-10T11:06:59;15.05;;;7.80;;
72720;SDS011;60835;50.974;10.322;2022-12-10T11:09:28;14.75;;;7.75;;
72720;SDS011;60835;50.974;10.322;2022-12-10T11:12:03;19.95;;;8.73;;
72720;SDS011;60835;50.974;10.322;2022-12-10T11:14:40;18.77;;;9.10;;
72720;SDS011;60835;50.974;10.322;2022-12-10T11:19:58;17.08;;;8.73;;
72720;SDS011;60835;50.974;10.322;2022-12-10T11:22:29;26.70;;;13.27;;
72720;SDS011;60835;50.974;10.322;2022-12-10T11:24:58;18.17;;;9.93;;
72720;SDS011;60835;50.974;10.322;2022-12-10T11:27:32;20.08;;;9.55;;
72720;SDS011;60835;50.974;10.322;2022-12-10T11:30:22;21.58;;;10.38;;
72720;SDS011;60835;50.974;10.322;2022-12-10T11:40:38;20.90;;;10.65;;
72720;SDS011;60835;50.974;10.322;2022-12-10T11:43:15;17.75;;;9.02;;
72720;SDS011;60835;50.974;10.322;2022-12-10T11:46:01;70.15;;;34.90;;
72720;SDS011;60835;50.974;10.322;2022-12-10T11:51:59;24.00;;;11.05;;
72720;SDS011;60835;50.974;10.322;2022-12-10T11:57:01;21.95;;;11.00;;
72720;SDS011;60835;50.974;10.322;2022-12-10T11:59:36;24.90;;;12.15;;
72720;SDS011;60835;50.974;10.322;2022-12-10T12:05:40;21.27;;;10.70;;
72720;SDS011;60835;50.974;10.322;2022-12-10T12:08:34;20.92;;;10.43;;
72720;SDS011;60835;50.974;10.322;2022-12-10T12:11:09;22.33;;;10.30;;
72720;SDS011;60835;50.974;10.322;2022-12-10T12:16:34;18.48;;;9.57;;
72720;SDS011;60835;50.974;10.322;2022-12-10T12:19:19;19.38;;;10.07;;
72720;SDS011;60835;50.974;10.322;2022-12-10T12:21:51;18.70;;;9.88;;
72720;SDS011;60835;50.974;10.322;2022-12-10T12:24:20;21.83;;;10.63;;
72720;SDS011;60835;50.974;10.322;2022-12-10T12:27:25;21.58;;;10.90;;
72720;SDS011;60835;50.974;10.322;2022-12-10T12:30:00;23.23;;;10.82;;
72720;SDS011;60835;50.974;10.322;2022-12-10T12:40:53;24.00;;;12.32;;
72720;SDS011;60835;50.974;10.322;2022-12-10T12:43:25;22.33;;;11.50;;
72720;SDS011;60835;50.974;10.322;2022-12-10T12:46:05;23.08;;;11.70;;
72720;SDS011;60835;50.974;10.322;2022-12-10T12:48:48;21.92;;;11.63;;
72720;SDS011;60835;50.974;10.322;2022-12-10T12:51:29;24.38;;;11.93;;
72720;SDS011;60835;50.974;10.322;2022-12-10T12:54:07;22.20;;;11.40;;
72720;SDS011;60835;50.974;10.322;2022-12-10T13:04:46;24.83;;;12.00;;
72720;SDS011;60835;50.974;10.322;2022-12-10T13:09:46;27.00;;;13.63;;
72720;SDS011;60835;50.974;10.322;2022-12-10T13:14:55;27.92;;;13.13;;
72720;SDS011;60835;50.974;10.322;2022-12-10T13:17:35;25.77;;;12.93;;
72720;SDS011;60835;50.974;10.322;2022-12-10T13:22:59;27.58;;;13.65;;
72720;SDS011;60835;50.974;10.322;2022-12-10T13:28:16;26.58;;;13.27;;
72720;SDS011;60835;50.974;10.322;2022-12-10T13:34:04;28.75;;;13.65;;
72720;SDS011;60835;50.974;10.322;2022-12-10T13:39:32;28.75;;;13.20;;
72720;SDS011;60835;50.974;10.322;2022-12-10T13:45:00;26.70;;;12.77;;
72720;SDS011;60835;50.974;10.322;2022-12-10T13:50:53;27.15;;;13.05;;
72720;SDS011;60835;50.974;10.322;2022-12-10T14:01:08;24.17;;;11.75;;
72720;SDS011;60835;50.974;10.322;2022-12-10T14:06:40;27.50;;;12.93;;
72720;SDS011;60835;50.974;10.322;2022-12-10T14:09:11;25.40;;;12.00;;
72720;SDS011;60835;50.974;10.322;2022-12-10T14:11:53;26.30;;;12.55;;
72720;SDS011;60835;50.974;10.322;2022-12-10T14:14:25;24.25;;;12.23;;
72720;SDS011;60835;50.974;10.322;2022-12-10T14:17:01;27.40;;;13.13;;
72720;SDS011;60835;50.974;10.322;2022-12-10T14:19:32;29.80;;;14.05;;
72720;SDS011;60835;50.974;10.322;2022-12-10T14:22:05;26.90;;;13.73;;
72720;SDS011;60835;50.974;10.322;2022-12-10T14:24:34;29.27;;;14.02;;
72720;SDS011;60835;50.974;10.322;2022-12-10T14:27:11;33.13;;;14.80;;
72720;SDS011;60835;50.974;10.322;2022-12-10T14:29:43;31.75;;;13.65;;
72720;SDS011;60835;50.974;10.322;2022-12-10T14:32:15;30.80;;;14.20;;
72720;SDS011;60835;50.974;10.322;2022-12-10T14:34:46;31.42;;;14.18;;
72720;SDS011;60835;50.974;10.322;2022-12-10T14:37:23;29.83;;;14.32;;
72720;SDS011;60835;50.974;10.322;2022-12-10T14:39:53;29.17;;;13.77;;
72720;SDS011;60835;50.974;10.322;2022-12-10T14:42:20;29.27;;;12.57;;
72720;SDS011;60835;50.974;10.322;2022-12-10T14:44:58;27.42;;;12.88;;
72720;SDS011;60835;50.974;10.322;2022-12-10T14:47:27;28.25;;;13.48;;
72720;SDS011;60835;50.974;10.322;2022-12-10T14:50:00;27.35;;;13.35;;
72720;SDS011;60835;50.974;10.322;2022-12-10T14:52:33;23.27;;;11.57;;
72720;SDS011;60835;50.974;10.322;2022-12-10T14:55:11;28.60;;;13.32;;
72720;SDS011;60835;50.974;10.322;2022-12-10T14:57:40;24.83;;;12.57;;
72720;SDS011;60835;50.974;10.322;2022-12-10T15:00:11;22.83;;;10.73;;
72720;SDS011;60835;50.974;10.322;2022-12-10T15:02:42;25.08;;;11.43;;
72720;SDS011;60835;50.974;10.322;2022-12-10T15:05:13;21.73;;;9.98;;
72720;SDS011;60835;50.974;10.322;2022-12-10T15:07:47;21.20;;;10.30;;
72720;SDS011;60835;50.974;10.322;2022-12-10T15:10:36;20.15;;;9.88;;
72720;SDS011;60835;50.974;10.322;2022-12-10T15:13:05;23.65;;;11.52;;
72720;SDS011;60835;50.974;10.322;2022-12-10T15:15:34;23.00;;;10.65;;
72720;SDS011;60835;50.974;10.322;2022-12-10T15:18:12;26.20;;;12.63;;
72720;SDS011;60835;50.974;10.322;2022-12-10T15:28:27;29.52;;;13.15;;
72720;SDS011;60835;50.974;10.322;2022-12-10T15:30:56;28.80;;;13.82;;
72720;SDS011;60835;50.974;10.322;2022-12-10T15:33:40;26.75;;;12.15;;
72720;SDS011;60835;50.974;10.322;2022-12-10T15:36:19;26.33;;;12.00;;
72720;SDS011;60835;50.974;10.322;2022-12-10T15:38:46;28.20;;;12.70;;
72720;SDS011;60835;50.974;10.322;2022-12-10T15:41:23;26.13;;;11.98;;
72720;SDS011;60835;50.974;10.322;2022-12-10T15:44:06;29.48;;;13.27;;
72720;SDS011;60835;50.974;10.322;2022-12-10T15:46:56;30.20;;;14.57;;
72720;SDS011;60835;50.974;10.322;2022-12-10T15:49:29;35.88;;;16.05;;
72720;SDS011;60835;50.974;10.322;2022-12-10T15:51:56;31.13;;;14.27;;
72720;SDS011;60835;50.974;10.322;2022-12-10T15:54:28;31.80;;;14.50;;
72720;SDS011;60835;50.974;10.322;2022-12-10T15:56:59;30.85;;;13.63;;
72720;SDS011;60835;50.974;10.322;2022-12-10T15:59:26;33.80;;;15.23;;
72720;SDS011;60835;50.974;10.322;2022-12-10T16:01:53;27.85;;;12.85;;
72720;SDS011;60835;50.974;10.322;2022-12-10T16:04:20;31.80;;;14.43;;
72720;SDS011;60835;50.974;10.322;2022-12-10T16:06:47;28.10;;;13.65;;
72720;SDS011;60835;50.974;10.322;2022-12-10T16:09:13;29.05;;;14.27;;
72720;SDS011;60835;50.974;10.322;2022-12-10T16:11:40;31.75;;;14.07;;
72720;SDS011;60835;50.974;10.322;2022-12-10T16:14:08;27.30;;;12.80;;
72720;SDS011;60835;50.974;10.322;2022-12-10T16:16:35;31.25;;;14.23;;
72720;SDS011;60835;50.974;10.322;2022-12-10T16:19:04;30.02;;;13.73;;
72720;SDS011;60835;50.974;10.322;2022-12-10T16:21:35;29.20;;;13.13;;
72720;SDS011;60835;50.974;10.322;2022-12-10T16:24:02;28.75;;;14.02;;